createdAt,value
2023-02-06T00:02:09.132Z,27.43
2023-02-06T00:04:36.137Z,29.93
2023-02-06T00:07:05.088Z,30.53
2023-02-06T00:09:38.062Z,19.73
2023-02-06T00:12:09.968Z,28.60
2023-02-06T00:14:37.011Z,25.83
2023-02-06T00:17:06.231Z,26.70
2023-02-06T00:19:38.085Z,21.10
2023-02-06T00:22:08.196Z,23.80
2023-02-06T00:24:38.241Z,25.27
2023-02-06T00:27:08.386Z,21.93
2023-02-06T00:29:36.515Z,32.03
2023-02-06T00:32:05.505Z,24.90
2023-02-06T00:34:32.397Z,26.03
2023-02-06T00:37:02.513Z,24.77
2023-02-06T00:39:48.424Z,23.07
2023-02-06T00:42:17.506Z,25.87
2023-02-06T00:44:45.438Z,26.77
2023-02-06T00:47:15.341Z,20.53
2023-02-06T00:49:42.352Z,25.03
2023-02-06T00:52:10.297Z,21.03
2023-02-06T00:54:43.083Z,23.83
2023-02-06T00:57:13.151Z,21.83
2023-02-06T00:59:42.082Z,30.77
2023-02-06T01:02:09.159Z,29.20
2023-02-06T01:04:36.301Z,31.77
2023-02-06T01:07:06.495Z,27.13
2023-02-06T01:09:44.907Z,37.43
2023-02-06T01:12:13.964Z,22.47
2023-02-06T01:14:40.949Z,30.63
2023-02-06T01:17:07.913Z,31.40
2023-02-06T01:19:36.732Z,32.77
2023-02-06T01:22:04.065Z,27.97
2023-02-06T01:24:31.034Z,37.20
2023-02-06T01:27:01.134Z,23.30
2023-02-06T01:29:29.100Z,27.17
2023-02-06T01:31:59.113Z,27.70
2023-02-06T01:34:26.275Z,29.03
2023-02-06T01:36:55.254Z,33.70
2023-02-06T01:39:23.190Z,26.13
2023-02-06T01:41:54.272Z,26.83
2023-02-06T01:44:23.470Z,30.33
2023-02-06T01:46:58.501Z,28.13
2023-02-06T01:49:30.953Z,29.77
2023-02-06T01:52:30.514Z,32.33
2023-02-06T01:55:06.615Z,24.87
2023-02-06T01:57:35.851Z,24.60
2023-02-06T02:00:07.617Z,33.00
2023-02-06T02:02:39.258Z,28.13
2023-02-06T02:05:15.185Z,25.87
2023-02-06T02:07:49.296Z,16.53
2023-02-06T02:10:19.426Z,26.93
2023-02-06T02:12:48.410Z,26.27
2023-02-06T02:15:18.657Z,20.27
2023-02-06T02:18:20.044Z,27.37
2023-02-06T02:21:12.708Z,33.13
2023-02-06T02:23:52.179Z,31.67
2023-02-06T02:26:31.342Z,30.63
2023-02-06T02:29:21.165Z,27.07
2023-02-06T02:32:08.187Z,23.83
2023-02-06T02:35:19.512Z,29.60
2023-02-06T02:38:01.383Z,29.53
2023-02-06T02:40:52.858Z,25.83
2023-02-06T02:43:35.878Z,34.97
2023-02-06T02:46:34.996Z,22.70
2023-02-06T02:49:11.336Z,27.53
2023-02-06T02:51:42.180Z,32.43
2023-02-06T02:54:11.149Z,22.43
2023-02-06T02:56:38.150Z,21.97
2023-02-06T02:59:24.237Z,24.97
2023-02-06T03:02:16.343Z,23.00
2023-02-06T03:04:51.709Z,17.00
2023-02-06T03:07:56.146Z,23.00
2023-02-06T03:10:47.126Z,29.07
2023-02-06T03:13:42.289Z,26.97
2023-02-06T03:16:30.653Z,30.27
2023-02-06T03:19:22.396Z,20.90
2023-02-06T03:21:52.607Z,20.27
2023-02-06T03:24:33.674Z,24.90
2023-02-06T03:27:08.448Z,29.37
2023-02-06T03:29:38.559Z,18.60
2023-02-06T03:32:17.805Z,15.30
2023-02-06T03:35:06.413Z,19.90
2023-02-06T03:37:35.413Z,14.43
2023-02-06T03:40:04.074Z,20.57
2023-02-06T03:42:35.838Z,20.13
2023-02-06T03:45:31.754Z,23.47
2023-02-06T03:48:03.188Z,16.50
2023-02-06T03:50:35.373Z,14.10
2023-02-06T03:53:05.530Z,23.43
2023-02-06T03:55:32.435Z,21.13
2023-02-06T03:58:05.533Z,16.10
2023-02-06T04:00:38.573Z,21.00
2023-02-06T04:03:06.261Z,18.60
2023-02-06T04:05:33.508Z,31.47
2023-02-06T04:08:01.581Z,25.83
2023-02-06T04:10:34.356Z,16.67
2023-02-06T04:13:04.374Z,19.70
2023-02-06T04:15:32.325Z,21.60
2023-02-06T04:18:02.819Z,21.10
2023-02-06T04:20:33.846Z,18.30
2023-02-06T04:23:03.843Z,22.43
2023-02-06T04:25:32.654Z,21.20
2023-02-06T04:28:00.689Z,22.53
2023-02-06T04:30:30.769Z,12.60
2023-02-06T04:33:09.536Z,16.83
2023-02-06T04:35:36.806Z,18.17
2023-02-06T04:38:10.590Z,20.93
2023-02-06T04:40:40.584Z,24.43
2023-02-06T04:43:12.541Z,22.53
2023-02-06T04:45:39.564Z,25.23
2023-02-06T04:48:09.015Z,16.40
2023-02-06T04:50:36.980Z,20.93
2023-02-06T04:53:05.960Z,18.27
2023-02-06T04:55:32.963Z,12.93
2023-02-06T04:58:03.023Z,20.17
2023-02-06T05:00:32.397Z,17.87
2023-02-06T05:02:59.429Z,16.43
2023-02-06T05:05:26.532Z,15.83
2023-02-06T05:07:53.822Z,14.80
2023-02-06T05:10:28.923Z,16.87
2023-02-06T05:13:01.781Z,20.47
2023-02-06T05:15:31.884Z,13.23
2023-02-06T05:17:58.870Z,18.77
2023-02-06T05:20:25.830Z,23.67
2023-02-06T05:22:52.884Z,17.10
2023-02-06T05:25:21.851Z,12.87
2023-02-06T05:27:51.771Z,17.60
2023-02-06T05:30:19.321Z,18.90
2023-02-06T05:32:48.319Z,22.30
2023-02-06T05:35:18.491Z,18.00
2023-02-06T05:37:47.492Z,20.00
2023-02-06T05:40:16.973Z,17.03
2023-02-06T05:42:47.265Z,12.70
2023-02-06T05:45:15.326Z,16.77
2023-02-06T05:47:42.414Z,14.47
2023-02-06T05:50:14.026Z,18.13
2023-02-06T05:52:44.472Z,24.10
2023-02-06T05:55:16.130Z,13.57
2023-02-06T05:57:46.149Z,17.17
2023-02-06T06:00:14.000Z,10.90
2023-02-06T06:02:40.959Z,24.83
2023-02-06T06:05:14.092Z,14.23
2023-02-06T06:07:46.711Z,14.30
2023-02-06T06:10:16.221Z,12.63
2023-02-06T06:12:46.346Z,15.47
2023-02-06T06:15:16.486Z,17.17
2023-02-06T06:17:43.518Z,17.63
2023-02-06T06:20:14.702Z,21.33
2023-02-06T06:22:46.398Z,11.97
2023-02-06T06:25:15.297Z,22.10
2023-02-06T06:27:42.541Z,19.67
2023-02-06T06:30:12.441Z,16.90
2023-02-06T06:32:42.473Z,26.43
2023-02-06T06:35:11.491Z,21.00
2023-02-06T06:37:44.498Z,20.37
2023-02-06T06:40:11.897Z,17.83
2023-02-06T06:42:43.926Z,22.83
2023-02-06T06:45:17.024Z,18.93
2023-02-06T06:47:44.286Z,20.00
2023-02-06T06:50:14.446Z,17.37
2023-02-06T06:52:43.535Z,21.63
2023-02-06T06:55:23.101Z,20.87
2023-02-06T06:57:50.021Z,25.40
2023-02-06T07:00:20.527Z,14.40
2023-02-06T07:02:58.168Z,13.47
2023-02-06T07:05:25.128Z,24.17
2023-02-06T07:07:54.337Z,26.30
2023-02-06T07:10:22.275Z,19.97
2023-02-06T07:12:49.560Z,18.40
2023-02-06T07:15:16.644Z,24.93
2023-02-06T07:17:49.799Z,19.90
2023-02-06T07:20:19.058Z,18.70
2023-02-06T07:22:51.562Z,26.83
2023-02-06T07:25:20.364Z,23.13
2023-02-06T07:27:48.739Z,21.47
2023-02-06T07:30:16.885Z,29.20
2023-02-06T07:32:45.162Z,18.97
2023-02-06T07:35:15.441Z,18.87
2023-02-06T07:37:42.348Z,24.30
2023-02-06T07:42:54.854Z,25.77
2023-02-06T07:45:24.311Z,19.50
2023-02-06T07:47:53.754Z,16.87
2023-02-06T07:50:20.968Z,20.10
2023-02-06T07:52:50.304Z,17.07
2023-02-06T07:55:18.194Z,28.60
2023-02-06T07:57:48.227Z,27.60
2023-02-06T08:00:20.765Z,17.87
2023-02-06T08:02:47.733Z,23.33
2023-02-06T08:05:16.626Z,21.13
2023-02-06T08:07:45.841Z,19.77
2023-02-06T08:10:13.794Z,16.50
2023-02-06T08:12:42.001Z,21.37
2023-02-06T08:15:09.509Z,16.67
2023-02-06T08:17:39.411Z,21.47
2023-02-06T08:20:06.501Z,14.50
2023-02-06T08:22:34.700Z,14.83
2023-02-06T08:25:01.708Z,17.37
2023-02-06T08:27:32.022Z,21.47
2023-02-06T08:29:59.486Z,22.10
2023-02-06T08:32:28.559Z,20.97
2023-02-06T08:34:55.545Z,16.60
2023-02-06T08:37:24.420Z,15.47
2023-02-06T08:39:54.485Z,19.50
2023-02-06T08:42:24.533Z,17.33
2023-02-06T08:44:53.807Z,16.85
2023-02-06T08:47:20.730Z,14.98
2023-02-06T08:49:50.857Z,16.05
2023-02-06T08:52:19.094Z,18.77
2023-02-06T08:54:50.109Z,12.27
2023-02-06T08:57:20.455Z,18.73
2023-02-06T08:59:49.717Z,17.10
2023-02-06T09:02:18.743Z,17.77
2023-02-06T09:04:48.905Z,15.50
2023-02-06T09:07:17.396Z,18.15
2023-02-06T09:09:47.100Z,19.92
2023-02-06T09:12:15.937Z,14.90
2023-02-06T09:14:46.019Z,13.25
2023-02-06T09:17:16.226Z,17.20
2023-02-06T09:19:46.289Z,17.40
2023-02-06T09:22:14.217Z,16.95
2023-02-06T09:24:44.449Z,15.40
2023-02-06T09:27:12.506Z,12.73
2023-02-06T09:29:42.889Z,14.23
2023-02-06T09:32:10.844Z,10.82
2023-02-06T09:34:41.121Z,14.30
2023-02-06T09:37:11.578Z,12.93
2023-02-06T09:39:39.574Z,16.65
2023-02-06T09:42:18.313Z,20.10
2023-02-06T09:44:55.478Z,16.02
2023-02-06T09:47:31.918Z,15.63
2023-02-06T09:50:24.106Z,19.63
2023-02-06T09:53:12.658Z,14.18
2023-02-06T09:55:43.754Z,15.23
2023-02-06T09:58:19.275Z,13.48
2023-02-06T10:01:15.797Z,12.57
2023-02-06T10:04:20.853Z,12.73
2023-02-06T10:07:00.939Z,15.57
2023-02-06T10:09:43.281Z,9.63
2023-02-06T10:12:26.793Z,13.25
2023-02-06T10:15:11.138Z,13.88
2023-02-06T10:18:01.597Z,15.73
2023-02-06T10:20:42.941Z,12.57
2023-02-06T10:23:30.416Z,13.13
2023-02-06T10:26:20.692Z,15.80
2023-02-06T10:28:52.673Z,13.95
2023-02-06T10:31:26.897Z,11.45
2023-02-06T10:34:19.696Z,11.45
2023-02-06T10:36:54.540Z,11.20
2023-02-06T10:40:02.970Z,15.07
2023-02-06T10:42:37.824Z,12.10
2023-02-06T10:45:25.162Z,14.93
2023-02-06T10:47:59.158Z,13.02
2023-02-06T10:50:34.568Z,12.18
2023-02-06T10:53:09.749Z,15.60
2023-02-06T10:56:02.086Z,13.77
2023-02-06T10:58:36.418Z,12.27
2023-02-06T11:01:23.682Z,8.55
2023-02-06T11:04:20.459Z,11.30
2023-02-06T11:06:47.566Z,12.43
2023-02-06T11:09:17.709Z,12.57
2023-02-06T11:11:48.452Z,11.18
2023-02-06T11:14:28.713Z,13.38
2023-02-06T11:16:59.601Z,15.68
2023-02-06T11:19:36.422Z,7.93
2023-02-06T11:22:15.790Z,11.55
2023-02-06T11:25:09.872Z,9.10
2023-02-06T11:27:43.044Z,7.05
2023-02-06T11:30:33.573Z,14.63
2023-02-06T11:33:25.700Z,11.18
2023-02-06T11:36:00.224Z,11.50
2023-02-06T11:38:33.180Z,11.52
2023-02-06T11:41:01.150Z,12.65
2023-02-06T11:43:44.630Z,10.50
2023-02-06T11:46:11.494Z,14.55
2023-02-06T11:49:09.940Z,10.82
2023-02-06T11:51:49.058Z,10.55
2023-02-06T11:54:32.134Z,14.10
2023-02-06T11:57:08.011Z,12.30
2023-02-06T11:59:49.173Z,10.35
2023-02-06T12:02:28.150Z,13.30
2023-02-06T12:05:17.048Z,10.00
2023-02-06T12:07:50.823Z,13.37
2023-02-06T12:10:20.648Z,12.93
2023-02-06T12:12:56.664Z,10.87
2023-02-06T12:15:46.712Z,12.13
2023-02-06T12:18:21.665Z,11.73
2023-02-06T12:21:01.187Z,9.77
2023-02-06T12:23:29.096Z,9.27
2023-02-06T12:26:00.036Z,10.37
2023-02-06T12:28:58.116Z,10.57
2023-02-06T12:31:34.830Z,14.33
2023-02-06T12:34:28.864Z,9.57
2023-02-06T12:37:15.265Z,14.00
2023-02-06T12:39:45.579Z,13.37
2023-02-06T12:42:43.800Z,11.47
2023-02-06T12:45:34.148Z,12.07
2023-02-06T12:48:14.671Z,12.33
2023-02-06T12:51:05.530Z,12.70
2023-02-06T12:53:47.524Z,13.07
2023-02-06T12:56:52.417Z,14.33
2023-02-06T12:59:58.600Z,11.30
2023-02-06T13:02:45.909Z,16.87
2023-02-06T13:05:23.185Z,15.27
2023-02-06T13:07:54.030Z,13.77
2023-02-06T13:10:25.565Z,19.10
2023-02-06T13:13:01.644Z,15.00
2023-02-06T13:15:39.907Z,17.63
2023-02-06T13:18:36.066Z,14.43
2023-02-06T13:21:25.025Z,12.80
2023-02-06T13:24:04.357Z,10.30
2023-02-06T13:26:58.367Z,10.60
2023-02-06T13:29:36.606Z,10.17
2023-02-06T13:32:18.917Z,10.37
2023-02-06T13:35:21.365Z,13.43
2023-02-06T13:37:52.386Z,16.43
2023-02-06T13:40:30.632Z,10.93
2023-02-06T13:43:11.164Z,14.53
2023-02-06T13:45:51.053Z,13.97
2023-02-06T13:48:29.941Z,18.97
2023-02-06T13:51:17.594Z,11.40
2023-02-06T13:53:56.601Z,8.37
2023-02-06T13:56:57.707Z,10.53
2023-02-06T13:59:37.192Z,12.93
2023-02-06T14:02:22.676Z,14.37
2023-02-06T14:04:52.988Z,12.23
2023-02-06T14:07:58.419Z,17.03
2023-02-06T14:10:36.079Z,15.53
2023-02-06T14:13:24.355Z,13.77
2023-02-06T14:16:12.168Z,11.70
2023-02-06T14:19:05.517Z,16.20
2023-02-06T14:21:38.757Z,13.23
2023-02-06T14:24:34.598Z,12.60
2023-02-06T14:27:02.630Z,10.57
2023-02-06T14:30:06.109Z,12.50
2023-02-06T14:33:19.455Z,11.77
2023-02-06T14:36:07.484Z,10.33
2023-02-06T14:38:48.991Z,10.73
2023-02-06T14:41:17.482Z,10.80
2023-02-06T14:43:53.451Z,9.50
2023-02-06T14:46:27.320Z,12.60
2023-02-06T14:48:58.402Z,9.37
2023-02-06T14:51:31.950Z,11.10
2023-02-06T14:54:02.193Z,13.00
2023-02-06T14:56:40.367Z,9.10
2023-02-06T14:59:18.069Z,8.93
2023-02-06T15:01:49.392Z,8.83
2023-02-06T15:04:24.150Z,11.43
2023-02-06T15:07:02.471Z,11.27
2023-02-06T15:09:35.652Z,11.93
2023-02-06T15:12:26.764Z,12.33
2023-02-06T15:15:20.408Z,11.20
2023-02-06T15:18:07.742Z,10.77
2023-02-06T15:20:41.388Z,14.90
2023-02-06T15:23:46.957Z,9.13
2023-02-06T15:26:33.449Z,10.90
2023-02-06T15:29:04.821Z,15.37
2023-02-06T15:31:32.939Z,7.33
2023-02-06T15:34:03.146Z,11.73
2023-02-06T15:36:36.888Z,9.17
2023-02-06T15:39:07.833Z,9.50
2023-02-06T15:41:37.136Z,7.77
2023-02-06T15:44:20.680Z,11.03
2023-02-06T15:46:49.348Z,10.53
2023-02-06T15:49:34.380Z,10.00
2023-02-06T15:52:04.811Z,16.60
2023-02-06T15:54:34.291Z,14.63
2023-02-06T15:57:17.427Z,9.43
2023-02-06T15:59:45.916Z,11.00
2023-02-06T16:02:33.636Z,10.13
2023-02-06T16:05:02.878Z,11.30
2023-02-06T16:07:32.873Z,10.20
2023-02-06T16:10:22.410Z,15.57
2023-02-06T16:12:53.301Z,13.07
2023-02-06T16:15:30.687Z,12.70
2023-02-06T16:18:02.171Z,13.30
2023-02-06T16:20:34.650Z,12.03
2023-02-06T16:23:28.227Z,13.60
2023-02-06T16:26:19.703Z,13.40
2023-02-06T16:28:56.546Z,10.10
2023-02-06T16:31:28.058Z,11.77
2023-02-06T16:33:56.997Z,13.30
2023-02-06T16:36:27.267Z,7.23
2023-02-06T16:39:03.682Z,9.50
2023-02-06T16:41:43.757Z,9.47
2023-02-06T16:44:15.010Z,14.13
2023-02-06T16:46:48.147Z,10.13
2023-02-06T16:49:21.809Z,8.50
2023-02-06T16:52:01.954Z,11.67
2023-02-06T16:54:32.151Z,11.20
2023-02-06T16:57:19.182Z,8.70
2023-02-06T17:02:38.503Z,11.20
2023-02-06T17:05:06.721Z,10.03
2023-02-06T17:07:35.114Z,15.00
2023-02-06T17:10:06.272Z,13.37
2023-02-06T17:12:33.420Z,14.27
2023-02-06T17:15:02.437Z,14.43
2023-02-06T17:17:29.678Z,11.50
2023-02-06T17:19:59.790Z,11.80
2023-02-06T17:22:28.820Z,8.73
2023-02-06T17:24:55.988Z,18.57
2023-02-06T17:27:25.751Z,15.57
2023-02-06T17:29:54.787Z,13.13
2023-02-06T17:32:23.051Z,14.27
2023-02-06T17:34:54.553Z,17.83
2023-02-06T17:37:25.944Z,14.57
2023-02-06T17:39:55.484Z,21.70
2023-02-06T17:42:23.280Z,16.17
2023-02-06T17:44:52.344Z,11.40
2023-02-06T17:47:28.366Z,14.60
2023-02-06T17:50:00.346Z,21.20
2023-02-06T17:52:30.176Z,14.27
2023-02-06T17:54:57.204Z,15.63
2023-02-06T17:57:24.241Z,19.60
2023-02-06T17:59:57.360Z,11.50
2023-02-06T18:02:25.462Z,15.53
2023-02-06T18:05:00.655Z,14.23
2023-02-06T18:07:28.312Z,13.70
2023-02-06T18:09:58.535Z,11.00
2023-02-06T18:12:27.538Z,11.77
2023-02-06T18:14:56.894Z,13.17
2023-02-06T18:17:26.877Z,10.97
2023-02-06T18:19:53.878Z,14.97
2023-02-06T18:22:24.973Z,12.97
2023-02-06T18:24:55.464Z,14.93
2023-02-06T18:27:25.574Z,21.87
2023-02-06T18:29:55.541Z,13.63
2023-02-06T18:32:25.967Z,11.73
2023-02-06T18:34:53.950Z,19.73
2023-02-06T18:37:23.974Z,14.60
2023-02-06T18:39:55.488Z,14.07
2023-02-06T18:42:44.058Z,20.60
2023-02-06T18:45:13.331Z,16.17
2023-02-06T18:47:46.198Z,16.30
2023-02-06T18:50:14.703Z,19.00
2023-02-06T18:52:44.817Z,15.63
2023-02-06T18:55:13.837Z,14.10
2023-02-06T18:57:45.688Z,14.37
2023-02-06T19:00:16.515Z,16.90
2023-02-06T19:02:45.845Z,16.67
2023-02-06T19:05:13.063Z,18.87
2023-02-06T19:07:40.361Z,18.10
2023-02-06T19:10:13.173Z,18.43
2023-02-06T19:12:40.223Z,13.73
2023-02-06T19:15:10.572Z,18.40
2023-02-06T19:17:40.881Z,17.57
2023-02-06T19:20:11.385Z,14.77
2023-02-06T19:22:38.926Z,18.83
2023-02-06T19:25:14.537Z,20.07
2023-02-06T19:27:42.072Z,15.13
2023-02-06T19:30:09.687Z,16.80
2023-02-06T19:32:40.095Z,12.00
2023-02-06T19:35:09.180Z,13.23
2023-02-06T19:37:39.694Z,17.70
2023-02-06T19:40:07.324Z,17.20
2023-02-06T19:42:35.474Z,15.93
2023-02-06T19:45:05.898Z,19.63
2023-02-06T19:47:37.283Z,18.03
2023-02-06T19:50:06.660Z,14.30
2023-02-06T19:52:36.510Z,11.70
2023-02-06T19:55:05.650Z,18.97
2023-02-06T19:57:32.922Z,12.37
2023-02-06T19:59:59.930Z,12.47
2023-02-06T20:02:26.917Z,12.03
2023-02-06T20:04:54.972Z,21.10
2023-02-06T20:07:22.021Z,12.60
2023-02-06T20:09:53.378Z,20.63
2023-02-06T20:12:20.405Z,18.03
2023-02-06T20:14:50.328Z,15.10
2023-02-06T20:17:27.187Z,17.33
2023-02-06T20:19:56.630Z,18.27
2023-02-06T20:22:24.644Z,17.03
2023-02-06T20:24:51.734Z,17.87
2023-02-06T20:27:18.677Z,16.50
2023-02-06T20:29:46.461Z,20.53
2023-02-06T20:32:16.637Z,26.57
2023-02-06T20:34:43.667Z,29.00
2023-02-06T20:37:10.655Z,38.47
2023-02-06T20:39:40.247Z,29.90
2023-02-06T20:42:07.218Z,29.70
2023-02-06T20:44:35.403Z,32.63
2023-02-06T20:47:02.363Z,48.30
2023-02-06T20:49:31.319Z,37.73
2023-02-06T20:52:05.398Z,26.07
2023-02-06T20:54:33.418Z,28.63
2023-02-06T20:57:00.548Z,27.13
2023-02-06T20:59:27.977Z,21.53
2023-02-06T21:01:54.928Z,29.93
2023-02-06T21:04:22.581Z,20.07
2023-02-06T21:06:50.167Z,24.10
2023-02-06T21:09:18.631Z,31.67
2023-02-06T21:11:48.289Z,18.07
2023-02-06T21:14:15.730Z,20.53
2023-02-06T21:16:44.025Z,15.70
2023-02-06T21:19:14.845Z,18.73
2023-02-06T21:21:48.031Z,23.77
2023-02-06T21:24:16.390Z,24.97
2023-02-06T21:26:44.536Z,17.00
2023-02-06T21:29:13.988Z,22.87
2023-02-06T21:31:41.863Z,18.30
2023-02-06T21:34:13.405Z,21.40
2023-02-06T21:36:41.052Z,18.77
2023-02-06T21:39:11.851Z,23.53
2023-02-06T21:41:38.897Z,17.33
2023-02-06T21:44:08.248Z,22.43
2023-02-06T21:46:36.351Z,25.40
2023-02-06T21:49:04.006Z,21.07
2023-02-06T21:51:34.493Z,16.30
2023-02-06T21:54:01.557Z,22.67
2023-02-06T21:56:30.129Z,33.07
2023-02-06T21:58:57.873Z,18.23
2023-02-06T22:01:30.050Z,27.83
2023-02-06T22:04:00.583Z,25.70
2023-02-06T22:06:30.826Z,28.53
2023-02-06T22:09:07.593Z,22.00
2023-02-06T22:11:39.990Z,19.47
2023-02-06T22:14:14.587Z,30.47
2023-02-06T22:16:46.692Z,26.83
2023-02-06T22:19:16.904Z,25.33
2023-02-06T22:21:47.038Z,31.03
2023-02-06T22:24:15.053Z,16.73
2023-02-06T22:26:43.547Z,25.27
2023-02-06T22:29:13.536Z,17.43
2023-02-06T22:31:43.472Z,14.37
2023-02-06T22:34:20.575Z,22.43
2023-02-06T22:36:49.042Z,19.97
2023-02-06T22:39:19.393Z,25.17
2023-02-06T22:41:47.151Z,21.83
2023-02-06T22:44:18.786Z,18.93
2023-02-06T22:46:52.485Z,16.87
2023-02-06T22:49:24.645Z,25.73
2023-02-06T22:51:54.868Z,18.07
2023-02-06T22:54:22.853Z,22.40
2023-02-06T22:56:52.880Z,23.03
2023-02-06T22:59:24.955Z,19.57
2023-02-06T23:02:00.147Z,20.17
2023-02-06T23:04:29.990Z,22.50
2023-02-06T23:06:57.200Z,20.90
2023-02-06T23:09:39.518Z,24.43
2023-02-06T23:12:11.402Z,17.10
2023-02-06T23:14:44.417Z,13.47
2023-02-06T23:17:12.387Z,16.17
2023-02-06T23:19:40.524Z,15.27
2023-02-06T23:22:10.876Z,16.03
2023-02-06T23:24:37.838Z,16.70
2023-02-06T23:27:08.707Z,19.77
2023-02-06T23:29:36.718Z,21.97
2023-02-06T23:32:06.719Z,18.40
2023-02-06T23:34:34.636Z,18.57
2023-02-06T23:37:08.048Z,14.57
2023-02-06T23:39:38.109Z,17.83
2023-02-06T23:42:11.187Z,21.53
2023-02-06T23:44:40.213Z,21.40
2023-02-06T23:47:10.622Z,24.73
2023-02-06T23:49:39.629Z,18.27
2023-02-06T23:52:09.677Z,14.90
2023-02-06T23:54:39.772Z,14.93
2023-02-06T23:57:10.192Z,17.03
2023-02-06T23:59:40.260Z,20.97
